Buol Airport


Codes: WAMY/UOL
Name: Buol Airport
City: Buol-Celebes Island
Country: Indonesia
Elevation: 27 ft.
Wikipedia:

Photos at Buol Airport


   Photos courtesy of SpottingLog. You can add your own sightings and photos by signing up for a free trial today.



No photos found.

Weather at Buol Airport


Time (UTC)DescriptionTempratureWindCloud coverageVisibilityPressureHumidity
25-Jun-2024 12:00Light Rain23°C2 mph, S100%10000m1009hPa90%
25-Jun-2024 15:00Light Rain23°C4 mph, S100%10000m1009hPa91%
25-Jun-2024 18:00Overcast Clouds23°C4 mph, SW97%10000m1008hPa92%
25-Jun-2024 21:00Scattered Clouds22°C4 mph, SW50%10000m1008hPa91%
26-Jun-2024 00:00Scattered Clouds25°C4 mph, SW44%10000m1010hPa80%
26-Jun-2024 03:00Broken Clouds30°C2 mph, E70%10000m1009hPa55%
26-Jun-2024 06:00Light Rain29°C2 mph, NE64%10000m1006hPa64%
26-Jun-2024 09:00Light Rain25°C2 mph, E62%10000m1007hPa85%
26-Jun-2024 12:00Light Rain23°C4 mph, SW81%10000m1010hPa88%
26-Jun-2024 15:00Overcast Clouds23°C4 mph, SW100%10000m1011hPa87%
26-Jun-2024 18:00Overcast Clouds23°C4 mph, SW100%10000m1010hPa87%
26-Jun-2024 21:00Overcast Clouds22°C4 mph, SW98%10000m1010hPa88%
27-Jun-2024 00:00Overcast Clouds23°C4 mph, SW98%10000m1011hPa86%
27-Jun-2024 03:00Overcast Clouds29°C2 mph, NE88%10000m1010hPa59%
27-Jun-2024 06:00Light Rain27°C9 mph, NE90%10000m1008hPa77%
27-Jun-2024 09:00Light Rain24°C4 mph, NE95%10000m1009hPa89%
27-Jun-2024 12:00Light Rain23°C2 mph, SE97%10000m1011hPa91%
27-Jun-2024 15:00Light Rain23°C2 mph, SE97%10000m1012hPa92%
27-Jun-2024 18:00Overcast Clouds23°C2 mph, S98%10000m1010hPa93%
27-Jun-2024 21:00Overcast Clouds22°C4 mph, SW99%10000m1010hPa93%
28-Jun-2024 00:00Overcast Clouds23°C4 mph, SW100%10000m1012hPa89%
28-Jun-2024 03:00Broken Clouds30°C2 mph, SE84%10000m1010hPa58%
28-Jun-2024 06:00Light Rain27°C4 mph, NE84%9719m1008hPa74%
28-Jun-2024 09:00Moderate Rain24°C2 mph, N77%10000m1009hPa90%
28-Jun-2024 12:00Light Rain23°C0 mph, SW68%10000m1011hPa90%
28-Jun-2024 15:00Light Rain23°C2 mph, S91%10000m1012hPa92%
28-Jun-2024 18:00Light Rain22°C4 mph, SW94%10000m1010hPa94%
28-Jun-2024 21:00Light Rain22°C2 mph, SW90%10000m1010hPa94%
29-Jun-2024 00:00Light Rain23°C2 mph, SW92%10000m1012hPa91%
29-Jun-2024 03:00Moderate Rain24°C2 mph, NE86%5581m1011hPa92%
29-Jun-2024 06:00Light Rain27°C2 mph, NE67%10000m1009hPa78%
29-Jun-2024 09:00Light Rain24°C2 mph, N54%10000m1009hPa89%
29-Jun-2024 12:00Light Rain23°C2 mph, NW75%10000m1011hPa92%
29-Jun-2024 15:00Light Rain22°C2 mph, SW92%10000m1012hPa93%
29-Jun-2024 18:00Light Rain22°C4 mph, SW96%10000m1010hPa94%
29-Jun-2024 21:00Overcast Clouds22°C4 mph, SW100%10000m1010hPa93%
30-Jun-2024 00:00Overcast Clouds24°C2 mph, SW90%10000m1011hPa85%
30-Jun-2024 03:00Light Rain27°C2 mph, N75%10000m1010hPa79%
30-Jun-2024 06:00Moderate Rain26°C4 mph, N58%9870m1008hPa86%
30-Jun-2024 09:00Moderate Rain24°C2 mph, NW79%10000m1009hPa89%